Time,TemperatureF,DewpointF,PressureIn,WindDirection,WindDirectionDegrees,WindSpeedMPH,WindSpeedGustMPH,Humidity,HourlyPrecipIn,Conditions,Clouds,dailyrainin,SoftwareType,DateUTC
2013-07-04 00:00:00,62.7,62.7,29.00,SSE,158,1.0,3.0,100,0.00,,CLR,0.00,VWS V14.01,2013-07-04 05:00:00,
2013-07-04 00:10:00,62.5,62.5,29.00,SSE,158,1.0,3.0,100,0.00,,CLR,0.00,VWS V14.01,2013-07-04 05:10:00,
2013-07-04 00:20:00,62.3,62.3,28.99,SSE,158,1.0,4.0,100,0.00,,CLR,0.00,VWS V14.01,2013-07-04 05:20:00,
2013-07-04 00:30:00,62.3,62.3,28.99,SSE,158,2.0,5.0,100,0.00,,CLR,0.00,VWS V14.01,2013-07-04 05:30:00,
2013-07-04 00:40:00,62.2,62.2,28.99,SSE,158,2.0,4.0,100,0.00,,CLR,0.00,VWS V14.01,2013-07-04 05:40:00,
2013-07-04 00:50:00,62.2,62.2,28.99,SSE,158,2.0,4.0,100,0.00,,CLR,0.00,VWS V14.01,2013-07-04 05:50:00,
2013-07-04 01:00:00,62.1,62.1,28.99,South,180,2.0,5.0,100,0.00,,CLR,0.00,VWS V14.01,2013-07-04 06:00:00,
2013-07-04 01:10:00,62.1,62.1,28.99,SSE,158,2.0,4.0,100,0.00,,CLR,0.00,VWS V14.01,2013-07-04 06:10:00,
2013-07-04 01:20:00,62.0,62.0,28.99,SSE,158,2.0,5.0,100,0.00,,CLR,0.00,VWS V14.01,2013-07-04 06:20:00,
2013-07-04 01:30:00,61.9,61.9,28.99,SSE,158,2.0,6.0,100,0.00,,CLR,0.00,VWS V14.01,2013-07-04 06:30:00,
2013-07-04 01:40:00,61.7,61.7,28.99,South,180,3.0,7.0,100,0.00,,CLR,0.00,VWS V14.01,2013-07-04 06:40:00,
2013-07-04 01:50:00,61.4,61.4,28.99,SSE,158,3.0,7.0,100,0.00,,CLR,0.00,VWS V14.01,2013-07-04 06:50:00,
2013-07-04 02:00:00,61.3,61.3,28.99,SSE,158,3.0,7.0,100,0.00,,CLR,0.00,VWS V14.01,2013-07-04 07:00:00,
2013-07-04 02:10:00,61.3,61.3,28.99,SSE,158,3.0,7.0,100,0.00,,CLR,0.00,VWS V14.01,2013-07-04 07:10:00,
2013-07-04 02:20:00,61.2,61.2,28.99,South,180,3.0,6.0,100,0.00,,CLR,0.00,VWS V14.01,2013-07-04 07:20:00,
2013-07-04 02:30:00,61.2,61.2,28.98,SSE,158,3.0,7.0,100,0.00,,CLR,0.00,VWS V14.01,2013-07-04 07:30:00,
2013-07-04 02:40:00,61.2,61.2,28.98,SSE,158,2.0,5.0,100,0.00,,CLR,0.00,VWS V14.01,2013-07-04 07:40:00,
2013-07-04 02:50:00,61.4,61.4,28.99,SSE,158,3.0,7.0,100,0.00,,CLR,0.00,VWS V15.00,2013-07-04 07:50:00,
2013-07-04 03:00:00,61.3,61.3,28.98,SSE,158,2.0,5.0,100,0.00,,CLR,0.00,VWS V14.01,2013-07-04 08:00:00,
2013-07-04 03:10:00,61.3,61.3,28.98,SSE,158,2.0,7.0,100,0.00,,CLR,0.00,VWS V14.01,2013-07-04 08:10:00,
2013-07-04 03:20:00,61.2,61.2,28.98,SSE,158,2.0,5.0,100,0.00,,CLR,0.00,VWS V14.01,2013-07-04 08:20:00,
2013-07-04 03:30:00,61.2,61.2,28.98,SSE,158,2.0,5.0,100,0.00,,CLR,0.00,VWS V14.01,2013-07-04 08:30:00,
2013-07-04 03:40:00,61.2,61.2,28.98,SSE,158,2.0,6.0,100,0.00,,CLR,0.00,VWS V14.01,2013-07-04 08:40:00,
2013-07-04 03:48:00,60.9,60.9,29.04,SE,128,0.0,1.0,100,0.00,,CLR,0.00,VWS V14.01,2013-07-04 08:48:00,
2013-07-04 03:50:00,61.1,61.1,28.99,SSE,158,2.0,5.0,100,0.00,,CLR,0.00,VWS V14.01,2013-07-04 08:50:00,
2013-07-04 04:00:00,61.1,61.1,28.99,SSE,158,2.0,4.0,100,0.00,,CLR,0.00,VWS V14.01,2013-07-04 09:00:00,
2013-07-04 04:10:00,60.9,60.9,29.04,SE,128,0.0,1.0,100,0.00,,CLR,0.00,VWS V14.01,2013-07-04 09:10:00,
2013-07-04 04:20:00,61.2,61.2,28.98,SSE,158,2.0,5.0,100,0.00,,CLR,0.00,VWS V15.00,2013-07-04 09:20:00,
2013-07-04 04:30:00,60.8,60.8,28.99,SSE,158,2.0,5.0,100,0.00,,CLR,0.00,VWS V14.01,2013-07-04 09:30:00,
2013-07-04 04:40:00,60.7,60.7,28.99,SSE,158,2.0,5.0,100,0.00,,CLR,0.00,VWS V14.01,2013-07-04 09:40:00,
2013-07-04 04:50:00,60.5,60.5,29.00,SSE,158,2.0,6.0,100,0.00,,CLR,0.00,VWS V14.01,2013-07-04 09:50:00,
2013-07-04 05:00:00,60.4,60.4,28.99,SSE,158,2.0,5.0,100,0.00,,CLR,0.00,VWS V14.01,2013-07-04 10:00:00,
2013-07-04 05:10:00,60.4,60.4,29.00,SSE,158,3.0,7.0,100,0.00,,CLR,0.00,VWS V14.01,2013-07-04 10:10:00,
2013-07-04 05:20:00,60.3,60.3,29.00,SSE,158,3.0,6.0,100,0.00,,CLR,0.00,VWS V14.01,2013-07-04 10:20:00,
2013-07-04 05:30:00,60.2,60.2,29.00,SSE,158,2.0,5.0,100,0.00,,CLR,0.00,VWS V14.01,2013-07-04 10:30:00,
2013-07-04 05:40:00,60.2,60.2,29.00,SSE,158,2.0,6.0,100,0.00,,CLR,0.00,VWS V14.01,2013-07-04 10:40:00,
2013-07-04 05:50:00,60.2,60.2,29.00,South,180,3.0,6.0,100,0.00,,CLR,0.00,VWS V14.01,2013-07-04 10:50:00,
2013-07-04 06:00:00,60.1,60.1,29.01,South,180,3.0,6.0,100,0.00,,CLR,0.00,VWS V14.01,2013-07-04 11:00:00,
2013-07-04 06:10:00,60.4,60.4,29.00,SSE,158,3.0,7.0,100,0.00,,CLR,0.00,VWS V15.00,2013-07-04 11:10:00,
2013-07-04 06:20:00,60.1,60.1,29.01,SSE,158,2.0,5.0,100,0.00,,CLR,0.00,VWS V14.01,2013-07-04 11:20:00,
2013-07-04 06:30:00,60.1,60.1,29.01,SSE,158,2.0,6.0,100,0.01,,CLR,0.01,VWS V14.01,2013-07-04 11:30:00,
2013-07-04 06:40:00,60.1,60.1,29.01,SSE,158,3.0,6.0,100,0.01,,CLR,0.01,VWS V14.01,2013-07-04 11:40:00,
2013-07-04 06:50:00,60.2,60.2,29.01,SSE,158,2.0,5.0,100,0.01,,CLR,0.01,VWS V14.01,2013-07-04 11:50:00,
2013-07-04 07:00:00,60.3,60.3,29.01,South,180,1.0,4.0,100,0.01,,CLR,0.01,VWS V14.01,2013-07-04 12:00:00,
2013-07-04 07:10:00,60.4,60.4,29.01,SSE,158,1.0,3.0,100,0.01,,CLR,0.01,VWS V14.01,2013-07-04 12:10:00,
2013-07-04 07:20:00,60.5,60.5,29.01,SSE,158,2.0,4.0,100,0.01,,CLR,0.01,VWS V14.01,2013-07-04 12:20:00,
2013-07-04 07:30:00,60.7,60.7,29.02,South,180,1.0,3.0,100,0.01,,CLR,0.01,VWS V14.01,2013-07-04 12:30:00,
2013-07-04 07:40:00,61.1,61.1,29.02,SE,135,0.0,2.0,100,0.00,,CLR,0.01,VWS V14.01,2013-07-04 12:40:00,
2013-07-04 07:50:00,61.7,61.7,29.02,SE,135,1.0,4.0,100,0.00,,CLR,0.01,VWS V14.01,2013-07-04 12:50:00,
2013-07-04 08:00:00,62.3,62.3,29.02,South,180,1.0,4.0,100,0.00,,CLR,0.01,VWS V14.01,2013-07-04 13:00:00,
2013-07-04 08:10:00,62.9,62.9,29.02,South,180,1.0,4.0,100,0.00,,CLR,0.01,VWS V14.01,2013-07-04 13:10:00,
2013-07-04 08:20:00,63.5,63.5,29.02,South,180,2.0,6.0,100,0.00,,CLR,0.01,VWS V14.01,2013-07-04 13:20:00,
2013-07-04 08:30:00,64.1,64.1,29.02,South,180,1.0,4.0,100,0.00,,CLR,0.01,VWS V14.01,2013-07-04 13:30:00,
2013-07-04 08:40:00,64.7,64.7,29.02,SSE,158,1.0,3.0,100,0.00,,CLR,0.01,VWS V14.01,2013-07-04 13:40:00,
2013-07-04 08:50:00,61.7,61.7,29.02,SE,135,1.0,4.0,100,0.00,,CLR,0.01,VWS V15.00,2013-07-04 13:50:00,
2013-07-04 08:53:00,64.7,64.7,29.02,SSE,158,1.0,3.0,100,0.00,,CLR,0.01,VWS V14.01,2013-07-04 13:53:00,
2013-07-04 08:58:00,65.9,65.9,29.02,SSE,168,2.0,4.0,100,0.00,,CLR,0.01,VWS V14.01,2013-07-04 13:58:00,
2013-07-04 09:00:00,62.3,62.3,29.02,South,180,1.0,4.0,100,0.00,,CLR,0.01,VWS V15.00,2013-07-04 14:00:00,
2013-07-04 09:03:00,66.2,66.2,29.02,SSE,149,2.0,6.0,100,0.00,,CLR,0.01,VWS V14.01,2013-07-04 14:03:00,
2013-07-04 09:08:00,66.4,66.4,29.02,SSW,198,5.0,6.0,100,0.00,,CLR,0.01,VWS V14.01,2013-07-04 14:08:00,
2013-07-04 09:10:00,62.9,62.9,29.02,South,180,1.0,4.0,100,0.00,,CLR,0.01,VWS V15.00,2013-07-04 14:10:00,
2013-07-04 09:13:00,66.7,66.7,29.02,SE,144,0.0,7.0,100,0.00,,CLR,0.01,VWS V14.01,2013-07-04 14:13:00,
2013-07-04 09:19:00,67.0,67.0,29.02,South,180,1.0,7.0,100,0.00,,CLR,0.01,VWS V14.01,2013-07-04 14:19:00,
2013-07-04 09:20:00,63.5,63.5,29.02,South,180,2.0,6.0,100,0.00,,CLR,0.01,VWS V15.00,2013-07-04 14:20:00,
2013-07-04 09:24:00,67.1,67.1,29.01,SW,219,1.0,3.0,100,0.00,,CLR,0.01,VWS V14.01,2013-07-04 14:24:00,
2013-07-04 09:29:00,67.4,67.4,29.02,South,180,2.0,5.0,100,0.00,,CLR,0.01,VWS V14.01,2013-07-04 14:29:00,
2013-07-04 09:30:00,64.1,64.1,29.02,South,180,1.0,4.0,100,0.00,,CLR,0.01,VWS V15.00,2013-07-04 14:30:00,
2013-07-04 09:34:00,67.7,67.7,29.01,SSW,206,4.0,5.0,100,0.00,,CLR,0.01,VWS V14.01,2013-07-04 14:34:00,
2013-07-04 09:39:00,68.0,68.0,29.01,South,181,3.0,7.0,100,0.00,,CLR,0.01,VWS V14.01,2013-07-04 14:39:00,
2013-07-04 09:40:00,64.7,64.7,29.02,SSE,158,1.0,3.0,100,0.00,,CLR,0.01,VWS V15.00,2013-07-04 14:40:00,
2013-07-04 09:45:00,68.3,68.3,29.01,WSW,238,3.0,5.0,100,0.00,,CLR,0.01,VWS V14.01,2013-07-04 14:45:00,
2013-07-04 09:53:00,68.7,68.7,29.01,South,177,4.0,6.0,100,0.00,,CLR,0.01,VWS V14.01,2013-07-04 14:53:00,
2013-07-04 09:58:00,69.0,69.0,29.01,SSE,164,0.0,6.0,100,0.00,,CLR,0.01,VWS V14.01,2013-07-04 14:58:00,
2013-07-04 10:00:00,66.0,66.0,29.02,SSE,160,2.0,4.0,100,0.00,,CLR,0.01,VWS V15.00,2013-07-04 15:00:00,
2013-07-04 10:03:00,69.3,69.3,29.01,South,172,0.0,6.0,100,0.00,,CLR,0.01,VWS V14.01,2013-07-04 15:03:00,
2013-07-04 10:08:00,69.5,69.5,29.01,SSE,149,1.0,6.0,100,0.00,,CLR,0.01,VWS V14.01,2013-07-04 15:08:00,
2013-07-04 10:10:00,66.5,66.5,29.02,South,190,0.0,6.0,100,0.00,,CLR,0.01,VWS V15.00,2013-07-04 15:10:00,
2013-07-04 10:13:00,69.7,69.7,29.01,South,173,2.0,5.0,100,0.00,,CLR,0.01,VWS V14.01,2013-07-04 15:13:00,
2013-07-04 10:18:00,69.9,69.9,29.01,SSE,151,1.0,5.0,100,0.00,,CLR,0.01,VWS V14.01,2013-07-04 15:18:00,
2013-07-04 10:20:00,67.0,67.0,29.01,South,190,1.0,7.0,100,0.00,,CLR,0.01,VWS V15.00,2013-07-04 15:20:00,
2013-07-04 10:24:00,70.1,70.1,29.01,South,174,1.0,3.0,100,0.00,,CLR,0.01,VWS V14.01,2013-07-04 15:24:00,
2013-07-04 10:29:00,70.3,70.3,29.01,SSW,201,1.0,6.0,100,0.00,,CLR,0.01,VWS V14.01,2013-07-04 15:29:00,
2013-07-04 10:30:00,67.5,67.5,29.01,South,180,1.0,5.0,100,0.00,,CLR,0.01,VWS V15.00,2013-07-04 15:30:00,
2013-07-04 10:34:00,70.6,70.6,29.01,South,186,1.0,6.0,100,0.00,,CLR,0.01,VWS V14.01,2013-07-04 15:34:00,
2013-07-04 10:39:00,71.0,71.0,29.01,South,169,1.0,6.0,100,0.00,,CLR,0.01,VWS V14.01,2013-07-04 15:39:00,
2013-07-04 10:40:00,68.0,68.0,29.01,SSE,151,4.0,7.0,100,0.00,,CLR,0.01,VWS V15.00,2013-07-04 15:40:00,
2013-07-04 10:44:00,71.2,71.2,29.01,SE,132,1.0,5.0,100,0.00,,CLR,0.01,VWS V14.01,2013-07-04 15:44:00,
2013-07-04 10:49:00,71.5,71.5,29.01,SSE,159,3.0,8.0,100,0.00,,CLR,0.01,VWS V14.01,2013-07-04 15:49:00,
2013-07-04 10:50:00,68.5,68.5,29.01,South,177,3.0,5.0,100,0.00,,CLR,0.01,VWS V15.00,2013-07-04 15:50:00,
2013-07-04 10:54:00,71.7,71.7,29.01,SE,132,5.0,5.0,100,0.00,,CLR,0.01,VWS V14.01,2013-07-04 15:54:00,
2013-07-04 10:59:00,72.0,72.0,29.01,SSE,151,2.0,10.0,100,0.00,,CLR,0.01,VWS V14.01,2013-07-04 15:59:00,
2013-07-04 11:00:00,69.1,69.1,29.01,South,184,0.0,6.0,100,0.00,,CLR,0.01,VWS V15.00,2013-07-04 16:00:00,
2013-07-04 11:04:00,72.3,72.3,29.01,South,170,4.0,6.0,100,0.00,,CLR,0.01,VWS V14.01,2013-07-04 16:04:00,
2013-07-04 11:10:00,72.4,72.4,29.01,SE,146,3.0,6.0,100,0.00,,CLR,0.01,VWS V14.01,2013-07-04 16:10:00,
2013-07-04 11:14:00,72.6,72.6,29.01,West,267,1.0,3.0,100,0.00,,CLR,0.01,VWS V14.01,2013-07-04 16:14:00,
2013-07-04 11:19:00,72.7,72.7,29.01,SE,129,0.0,5.0,100,0.00,,CLR,0.01,VWS V14.01,2013-07-04 16:19:00,
2013-07-04 11:20:00,70.0,70.0,29.01,South,174,0.0,5.0,100,0.00,,CLR,0.01,VWS V15.00,2013-07-04 16:20:00,
2013-07-04 11:25:00,72.8,72.8,29.01,WSW,258,1.0,6.0,100,0.00,,CLR,0.01,VWS V14.01,2013-07-04 16:25:00,
2013-07-04 11:30:00,73.0,73.0,29.01,SSE,161,2.0,6.0,100,0.00,,CLR,0.01,VWS V14.01,2013-07-04 16:30:00,
2013-07-04 11:35:00,73.3,73.3,29.01,SSW,193,7.0,7.0,100,0.00,,CLR,0.01,VWS V14.01,2013-07-04 16:35:00,
2013-07-04 11:40:00,73.6,73.6,29.01,SW,227,3.0,7.0,100,0.00,,CLR,0.01,VWS V14.01,2013-07-04 16:40:00,
2013-07-04 11:45:00,73.8,73.8,29.01,SE,144,0.0,4.0,100,0.00,,CLR,0.01,VWS V14.01,2013-07-04 16:45:00,
2013-07-04 11:50:00,73.9,73.9,29.01,SW,218,0.0,4.0,100,0.00,,CLR,0.01,VWS V14.01,2013-07-04 16:50:00,
2013-07-04 11:55:00,74.0,74.0,29.01,NW,319,0.0,3.0,100,0.00,,CLR,0.01,VWS V14.01,2013-07-04 16:55:00,
2013-07-04 12:00:00,74.1,74.1,29.01,SW,224,0.0,0.0,100,0.00,,CLR,0.01,VWS V14.01,2013-07-04 17:00:00,
2013-07-04 12:05:00,74.2,74.2,29.01,SSW,196,3.0,5.0,100,0.00,,CLR,0.01,VWS V14.01,2013-07-04 17:05:00,
2013-07-04 12:10:00,74.5,74.5,29.00,South,177,3.0,3.0,100,0.00,,CLR,0.01,VWS V14.01,2013-07-04 17:10:00,
2013-07-04 12:15:00,74.8,74.8,29.01,SE,145,2.0,4.0,100,0.00,,CLR,0.01,VWS V14.01,2013-07-04 17:15:00,
2013-07-04 12:20:00,75.0,75.0,29.00,South,174,2.0,3.0,100,0.00,,CLR,0.01,VWS V14.01,2013-07-04 17:20:00,
2013-07-04 12:25:00,75.2,75.2,29.01,SSE,155,3.0,6.0,100,0.00,,CLR,0.01,VWS V14.01,2013-07-04 17:25:00,
2013-07-04 12:30:00,75.4,75.4,29.01,South,170,1.0,2.0,100,0.00,,CLR,0.01,VWS V14.01,2013-07-04 17:30:00,
2013-07-04 12:35:00,75.5,75.5,29.01,South,182,2.0,5.0,100,0.00,,CLR,0.01,VWS V14.01,2013-07-04 17:35:00,
2013-07-04 12:40:00,75.8,75.8,29.01,SE,133,1.0,3.0,100,0.00,,CLR,0.01,VWS V14.01,2013-07-04 17:40:00,
2013-07-04 12:45:00,76.0,76.0,29.01,SSE,159,5.0,6.0,100,0.00,,CLR,0.01,VWS V14.01,2013-07-04 17:45:00,
2013-07-04 12:50:00,76.2,76.2,29.00,South,171,3.0,4.0,100,0.00,,CLR,0.01,VWS V14.01,2013-07-04 17:50:00,
2013-07-04 12:55:00,76.5,76.5,29.00,SSE,152,0.0,5.0,100,0.00,,CLR,0.01,VWS V14.01,2013-07-04 17:55:00,
2013-07-04 13:00:00,76.5,76.5,29.00,South,170,0.0,2.0,100,0.00,,CLR,0.01,VWS V14.01,2013-07-04 18:00:00,
2013-07-04 13:05:00,76.5,76.5,29.00,South,170,0.0,3.0,100,0.00,,CLR,0.01,VWS V14.01,2013-07-04 18:05:00,
2013-07-04 13:10:00,74.5,74.5,29.01,SW,231,0.0,6.0,100,0.00,,CLR,0.01,VWS V15.00,2013-07-04 18:10:00,
2013-07-04 13:11:00,76.4,76.4,29.00,SE,136,3.0,3.0,100,0.00,,CLR,0.01,VWS V14.01,2013-07-04 18:11:00,
2013-07-04 13:16:00,76.7,76.7,29.00,South,176,4.0,5.0,100,0.00,,CLR,0.01,VWS V14.01,2013-07-04 18:16:00,
2013-07-04 13:20:00,75.0,75.0,29.01,South,187,1.0,5.0,100,0.00,,CLR,0.01,VWS V15.00,2013-07-04 18:20:00,
2013-07-04 13:21:00,76.8,76.8,28.99,SE,140,1.0,1.0,100,0.00,,CLR,0.01,VWS V14.01,2013-07-04 18:21:00,
2013-07-04 13:26:00,76.8,76.8,28.99,South,184,1.0,6.0,100,0.00,,CLR,0.01,VWS V14.01,2013-07-04 18:26:00,
2013-07-04 13:30:00,75.4,75.4,29.01,South,170,2.0,6.0,100,0.00,,CLR,0.01,VWS V15.00,2013-07-04 18:30:00,
2013-07-04 13:31:00,77.1,77.1,29.00,SE,135,7.0,9.0,100,0.00,,CLR,0.01,VWS V14.01,2013-07-04 18:31:00,
2013-07-04 13:36:00,77.4,77.4,28.99,SSE,167,3.0,9.0,100,0.00,,FEW055,0.01,VWS V14.01,2013-07-04 18:36:00,
2013-07-04 13:40:00,75.7,75.7,29.00,SE,132,2.0,6.0,100,0.00,,CLR,0.01,VWS V15.00,2013-07-04 18:40:00,
2013-07-04 13:41:00,77.6,77.6,29.00,South,177,6.0,9.0,100,0.00,,FEW055,0.01,VWS V14.01,2013-07-04 18:41:00,
2013-07-04 13:46:00,78.0,78.0,28.99,South,171,3.0,9.0,100,0.00,,FEW055,0.01,VWS V14.01,2013-07-04 18:46:00,
2013-07-04 13:50:00,76.2,76.2,29.00,SSW,200,4.0,7.0,100,0.00,,CLR,0.01,VWS V15.00,2013-07-04 18:50:00,
2013-07-04 13:51:00,78.3,78.3,28.99,SSE,159,9.0,9.0,100,0.00,,FEW055,0.01,VWS V14.01,2013-07-04 18:51:00,
2013-07-04 13:56:00,78.5,78.5,28.99,ESE,121,1.0,9.0,100,0.00,,FEW055,0.01,VWS V14.01,2013-07-04 18:56:00,
2013-07-04 14:00:00,76.5,76.5,29.00,South,170,1.0,7.0,100,0.00,,CLR,0.01,VWS V15.00,2013-07-04 19:00:00,
2013-07-04 14:01:00,78.5,78.5,28.99,ESE,122,1.0,1.0,100,0.00,,FEW055,0.01,VWS V14.01,2013-07-04 19:01:00,
2013-07-04 14:06:00,78.8,78.8,28.99,South,171,5.0,8.0,100,0.00,,FEW055,0.01,VWS V14.01,2013-07-04 19:06:00,
2013-07-04 14:10:00,76.4,76.4,29.00,SSE,164,3.0,4.0,100,0.00,,CLR,0.01,VWS V15.00,2013-07-04 19:10:00,
2013-07-04 14:11:00,79.0,79.0,29.00,SSE,160,4.0,8.0,100,0.00,,FEW055,0.01,VWS V14.01,2013-07-04 19:11:00,
2013-07-04 14:16:00,78.9,78.9,28.99,SSE,153,4.0,8.0,100,0.00,,FEW055,0.01,VWS V14.01,2013-07-04 19:16:00,
2013-07-04 14:20:00,76.8,76.8,28.99,SE,140,0.0,5.0,100,0.00,,CLR,0.01,VWS V15.00,2013-07-04 19:20:00,
2013-07-04 14:21:00,78.9,78.9,28.99,South,177,1.0,5.0,100,0.00,,FEW055,0.01,VWS V14.01,2013-07-04 19:21:00,
2013-07-04 14:26:00,79.2,79.2,28.99,South,187,0.0,7.0,100,0.00,,FEW055,0.01,VWS V14.01,2013-07-04 19:26:00,
2013-07-04 14:30:00,77.0,77.0,29.00,ESE,119,9.0,9.0,100,0.00,,CLR,0.01,VWS V15.00,2013-07-04 19:30:00,
2013-07-04 14:32:00,79.4,79.4,28.99,South,187,2.0,5.0,100,0.00,,SCT060,0.01,VWS V14.01,2013-07-04 19:32:00,
2013-07-04 14:37:00,79.7,79.7,28.99,SSE,157,3.0,9.0,100,0.00,,SCT060,0.01,VWS V14.01,2013-07-04 19:37:00,
2013-07-04 14:40:00,77.6,77.6,28.99,South,177,5.0,9.0,100,0.00,,CLR,0.01,VWS V15.00,2013-07-04 19:40:00,
2013-07-04 14:42:00,79.8,79.8,28.99,South,183,2.0,7.0,100,0.00,,SCT060,0.01,VWS V14.01,2013-07-04 19:42:00,
2013-07-04 14:47:00,80.0,80.0,28.99,South,173,2.0,9.0,100,0.00,,SCT060,0.01,VWS V14.01,2013-07-04 19:47:00,
2013-07-04 14:50:00,78.2,78.2,28.99,SSE,156,0.0,9.0,100,0.00,,CLR,0.01,VWS V15.00,2013-07-04 19:50:00,
2013-07-04 14:52:00,80.1,80.1,28.99,South,172,2.0,9.0,100,0.00,,SCT060,0.01,VWS V14.01,2013-07-04 19:52:00,
2013-07-04 14:57:00,80.3,80.3,28.99,SSE,168,1.0,9.0,100,0.00,,SCT060,0.01,VWS V14.01,2013-07-04 19:57:00,
2013-07-04 15:00:00,78.5,78.5,28.99,SSW,202,0.0,9.0,100,0.00,,CLR,0.01,VWS V15.00,2013-07-04 20:00:00,
2013-07-04 15:03:00,80.5,80.5,28.99,SSE,154,4.0,6.0,100,0.00,,SCT060,0.01,VWS V14.01,2013-07-04 20:03:00,
2013-07-04 15:08:00,80.5,80.5,28.99,WNW,283,3.0,6.0,100,0.00,,SCT060,0.01,VWS V14.01,2013-07-04 20:08:00,
2013-07-04 15:10:00,79.0,79.0,28.99,South,182,4.0,8.0,100,0.00,,CLR,0.01,VWS V15.00,2013-07-04 20:10:00,
2013-07-04 15:13:00,80.6,80.6,28.99,South,169,7.0,9.0,100,0.00,,SCT060,0.01,VWS V14.01,2013-07-04 20:13:00,
2013-07-04 15:18:00,80.7,80.7,28.99,SSE,160,0.0,9.0,100,0.00,,SCT060,0.01,VWS V14.01,2013-07-04 20:18:00,
2013-07-04 15:20:00,78.8,78.8,28.99,SSE,153,4.0,10.0,100,0.00,,CLR,0.01,VWS V15.00,2013-07-04 20:20:00,
2013-07-04 15:23:00,80.7,80.7,28.99,SE,144,2.0,5.0,100,0.00,,SCT060,0.01,VWS V14.01,2013-07-04 20:23:00,
2013-07-04 15:28:00,80.7,80.7,28.99,SSE,166,3.0,6.0,100,0.00,,SCT060,0.01,VWS V14.01,2013-07-04 20:28:00,
2013-07-04 15:30:00,79.3,79.3,28.99,SSE,166,5.0,7.0,100,0.00,,CLR,0.01,VWS V15.00,2013-07-04 20:30:00,
2013-07-04 15:33:00,80.7,80.7,28.99,SSW,193,0.0,4.0,100,0.00,,SCT060,0.01,VWS V14.01,2013-07-04 20:33:00,
2013-07-04 15:38:00,80.8,80.8,28.99,SE,136,3.0,8.0,100,0.00,,SCT060,0.01,VWS V14.01,2013-07-04 20:38:00,
2013-07-04 15:40:00,79.8,79.8,28.99,SSE,160,3.0,9.0,100,0.00,,CLR,0.01,VWS V15.00,2013-07-04 20:40:00,
2013-07-04 15:43:00,80.8,80.8,28.99,SSE,152,1.0,6.0,100,0.00,,SCT060,0.01,VWS V14.01,2013-07-04 20:43:00,
2013-07-04 15:48:00,80.8,80.8,28.99,SSW,205,2.0,7.0,100,0.00,,SCT060,0.01,VWS V14.01,2013-07-04 20:48:00,
2013-07-04 15:50:00,80.1,80.1,28.99,SE,142,7.0,9.0,100,0.00,,CLR,0.01,VWS V15.00,2013-07-04 20:50:00,
2013-07-04 15:53:00,80.6,80.6,28.99,South,180,2.0,4.0,100,0.00,,SCT060,0.01,VWS V14.01,2013-07-04 20:53:00,
2013-07-04 15:58:00,80.3,80.3,28.99,SSE,164,5.0,8.0,100,0.00,,SCT060,0.01,VWS V14.01,2013-07-04 20:58:00,
2013-07-04 16:00:00,80.4,80.4,28.99,SSE,161,6.0,9.0,100,0.00,,CLR,0.01,VWS V15.00,2013-07-04 21:00:00,
2013-07-04 16:03:00,80.4,80.4,28.99,SE,134,0.0,6.0,100,0.00,,SCT060,0.01,VWS V14.01,2013-07-04 21:03:00,
2013-07-04 16:08:00,80.4,80.4,28.99,SE,126,2.0,6.0,100,0.00,,SCT060,0.01,VWS V14.01,2013-07-04 21:08:00,
2013-07-04 16:10:00,80.6,80.6,28.99,South,178,4.0,8.0,100,0.00,,CLR,0.01,VWS V15.00,2013-07-04 21:10:00,
2013-07-04 16:13:00,80.7,80.7,28.99,SSW,192,3.0,8.0,100,0.00,,SCT060,0.01,VWS V14.01,2013-07-04 21:13:00,
2013-07-04 16:18:00,80.8,80.8,28.99,SSE,168,1.0,8.0,100,0.00,,SCT060,0.01,VWS V14.01,2013-07-04 21:18:00,
2013-07-04 16:19:00,80.9,80.9,28.99,South,174,2.0,8.0,100,0.00,,SCT060,0.01,VWS V14.01,2013-07-04 21:19:00,
2013-07-04 16:20:00,80.7,80.7,28.99,SSE,149,2.0,9.0,100,0.00,,CLR,0.01,VWS V15.00,2013-07-04 21:20:00,
2013-07-04 16:24:00,80.9,80.9,28.99,SE,145,2.0,7.0,100,0.00,,SCT060,0.01,VWS V14.01,2013-07-04 21:24:00,
2013-07-04 16:29:00,80.8,80.8,28.99,SE,144,5.0,7.0,100,0.00,,SCT060,0.01,VWS V14.01,2013-07-04 21:29:00,
2013-07-04 16:30:00,80.7,80.7,28.99,South,175,0.0,6.0,100,0.00,,CLR,0.01,VWS V15.00,2013-07-04 21:30:00,
2013-07-04 16:34:00,80.5,80.5,28.99,SSE,160,1.0,5.0,100,0.00,,SCT060,0.01,VWS V14.01,2013-07-04 21:34:00,
2013-07-04 16:39:00,80.5,80.5,28.99,South,172,3.0,6.0,100,0.00,,SCT060,0.01,VWS V14.01,2013-07-04 21:39:00,
2013-07-04 16:40:00,80.8,80.8,28.99,South,185,3.0,8.0,100,0.00,,CLR,0.01,VWS V15.00,2013-07-04 21:40:00,
2013-07-04 16:44:00,80.5,80.5,28.99,South,171,6.0,7.0,100,0.00,,SCT060,0.01,VWS V14.01,2013-07-04 21:44:00,
2013-07-04 16:49:00,80.3,80.3,28.99,SE,139,2.0,8.0,100,0.00,,SCT060,0.01,VWS V14.01,2013-07-04 21:49:00,
2013-07-04 16:50:00,80.8,80.8,28.99,South,180,1.0,7.0,100,0.00,,CLR,0.01,VWS V15.00,2013-07-04 21:50:00,
2013-07-04 16:54:00,80.1,80.1,28.99,SSE,154,1.0,5.0,100,0.00,,SCT060,0.01,VWS V14.01,2013-07-04 21:54:00,
2013-07-04 16:59:00,79.7,79.7,28.99,SSE,166,3.0,8.0,100,0.00,,SCT060,0.01,VWS V14.01,2013-07-04 21:59:00,
2013-07-04 17:00:00,80.3,80.3,28.99,SSE,153,5.0,8.0,100,0.00,,CLR,0.01,VWS V15.00,2013-07-04 22:00:00,
2013-07-04 17:05:00,79.6,79.6,28.99,SSE,150,3.0,6.0,100,0.00,,SCT060,0.01,VWS V14.01,2013-07-04 22:05:00,
2013-07-04 17:10:00,80.5,80.5,28.99,South,182,1.0,6.0,100,0.00,,CLR,0.01,VWS V15.00,2013-07-04 22:10:00,
2013-07-04 17:11:00,79.9,79.9,28.98,South,183,0.0,4.0,100,0.00,,SCT060,0.01,VWS V14.01,2013-07-04 22:11:00,
2013-07-04 17:16:00,80.1,80.1,28.98,SW,223,1.0,8.0,100,0.00,,SCT060,0.01,VWS V14.01,2013-07-04 22:16:00,
2013-07-04 17:20:00,80.9,80.9,28.99,SE,140,1.0,8.0,100,0.00,,CLR,0.01,VWS V15.00,2013-07-04 22:20:00,
2013-07-04 17:21:00,80.2,80.2,28.98,South,186,2.0,9.0,100,0.00,,SCT060,0.01,VWS V14.01,2013-07-04 22:21:00,
2013-07-04 17:26:00,80.2,80.2,28.98,SSE,164,0.0,9.0,100,0.00,,SCT060,0.01,VWS V14.01,2013-07-04 22:26:00,
2013-07-04 17:30:00,80.8,80.8,28.99,SSE,158,1.0,7.0,100,0.00,,CLR,0.01,VWS V15.00,2013-07-04 22:30:00,
2013-07-04 17:31:00,80.3,80.3,28.98,SSE,162,2.0,5.0,100,0.00,,SCT060,0.01,VWS V14.01,2013-07-04 22:31:00,
2013-07-04 17:36:00,80.3,80.3,28.98,South,180,0.0,6.0,100,0.00,,SCT060,0.01,VWS V14.01,2013-07-04 22:36:00,
2013-07-04 17:40:00,80.5,80.5,28.99,SW,228,2.0,6.0,100,0.00,,CLR,0.01,VWS V15.00,2013-07-04 22:40:00,
2013-07-04 17:41:00,80.4,80.4,28.98,SSE,150,2.0,4.0,100,0.00,,SCT060,0.01,VWS V14.01,2013-07-04 22:41:00,
2013-07-04 17:46:00,80.4,80.4,28.98,SSE,165,2.0,6.0,100,0.00,,SCT060,0.01,VWS V14.01,2013-07-04 22:46:00,
2013-07-04 17:50:00,80.3,80.3,28.99,SE,139,0.0,8.0,100,0.00,,CLR,0.01,VWS V15.00,2013-07-04 22:50:00,
2013-07-04 17:51:00,80.4,80.4,28.98,SSE,154,3.0,5.0,100,0.00,,SCT060,0.01,VWS V14.01,2013-07-04 22:51:00,
2013-07-04 17:56:00,80.4,80.4,28.98,South,175,0.0,6.0,100,0.00,,SCT060,0.01,VWS V14.01,2013-07-04 22:56:00,
2013-07-04 18:00:00,79.6,79.6,28.99,South,174,3.0,8.0,100,0.00,,CLR,0.01,VWS V15.00,2013-07-04 23:00:00,
2013-07-04 18:01:00,80.3,80.3,28.97,SSW,210,0.0,3.0,100,0.00,,SCT060,0.01,VWS V14.01,2013-07-04 23:01:00,
2013-07-04 18:06:00,80.1,80.1,28.97,SSE,164,3.0,9.0,100,0.00,,SCT060,0.01,VWS V14.01,2013-07-04 23:06:00,
2013-07-04 18:10:00,79.8,79.8,28.98,SSE,153,3.0,9.0,100,0.00,,CLR,0.01,VWS V15.00,2013-07-04 23:10:00,
2013-07-04 18:11:00,80.0,80.0,28.97,SSW,209,3.0,6.0,100,0.00,,SCT060,0.01,VWS V14.01,2013-07-04 23:11:00,
2013-07-04 18:16:00,79.9,79.9,28.97,South,190,5.0,9.0,100,0.00,,SCT060,0.01,VWS V14.01,2013-07-04 23:16:00,
2013-07-04 18:20:00,80.1,80.1,28.98,South,184,1.0,8.0,100,0.00,,CLR,0.01,VWS V15.00,2013-07-04 23:20:00,
2013-07-04 18:21:00,79.6,79.6,28.97,South,178,4.0,6.0,100,0.00,,SCT060,0.01,VWS V14.01,2013-07-04 23:21:00,
2013-07-04 18:26:00,79.3,79.3,28.97,SSE,159,0.0,6.0,100,0.00,,SCT060,0.01,VWS V14.01,2013-07-04 23:26:00,
2013-07-04 18:30:00,80.3,80.3,28.98,SE,137,4.0,9.0,100,0.00,,CLR,0.01,VWS V15.00,2013-07-04 23:30:00,
2013-07-04 18:32:00,79.0,79.0,28.97,SSW,198,2.0,2.0,100,0.00,,SCT060,0.01,VWS V14.01,2013-07-04 23:32:00,
2013-07-04 18:37:00,78.7,78.7,28.97,South,184,2.0,5.0,100,0.00,,SCT090,0.01,VWS V14.01,2013-07-04 23:37:00,
2013-07-04 18:40:00,80.3,80.3,28.98,South,180,0.0,6.0,100,0.00,,CLR,0.01,VWS V15.00,2013-07-04 23:40:00,
2013-07-04 18:42:00,78.5,78.5,28.97,South,184,0.0,2.0,100,0.00,,SCT090,0.01,VWS V14.01,2013-07-04 23:42:00,
2013-07-04 18:47:00,78.3,78.3,28.97,South,173,2.0,6.0,100,0.00,,SCT090,0.01,VWS V14.01,2013-07-04 23:47:00,
2013-07-04 18:50:00,80.5,80.5,28.98,SSE,160,0.0,6.0,100,0.00,,CLR,0.01,VWS V15.00,2013-07-04 23:50:00,
2013-07-04 18:52:00,77.9,77.9,28.97,SSE,156,3.0,4.0,100,0.00,,SCT090,0.01,VWS V14.01,2013-07-04 23:52:00,
2013-07-04 18:57:00,77.7,77.7,28.97,SSE,161,0.0,4.0,100,0.00,,SCT090,0.01,VWS V14.01,2013-07-04 23:57:00,
2013-07-04 19:00:00,80.3,80.3,28.97,SSE,162,0.0,6.0,100,0.00,,CLR,0.01,VWS V15.00,2013-07-05 00:00:00,
2013-07-04 19:02:00,77.5,77.5,28.97,SSE,161,1.0,1.0,100,0.00,,SCT090,0.01,VWS V14.01,2013-07-05 00:02:00,
2013-07-04 19:07:00,77.3,77.3,28.96,South,175,1.0,7.0,100,0.00,,SCT050,0.01,VWS V14.01,2013-07-05 00:07:00,
2013-07-04 19:10:00,80.1,80.1,28.98,SSE,152,2.0,9.0,100,0.00,,CLR,0.01,VWS V15.00,2013-07-05 00:10:00,
2013-07-04 19:12:00,77.1,77.1,28.96,South,174,0.0,3.0,100,0.00,,SCT050,0.01,VWS V14.01,2013-07-05 00:12:00,
2013-07-04 19:17:00,76.9,76.9,28.97,South,174,0.0,3.0,100,0.00,,SCT050,0.01,VWS V14.01,2013-07-05 00:17:00,
2013-07-04 19:20:00,79.6,79.6,28.97,South,176,2.0,9.0,100,0.00,,CLR,0.01,VWS V15.00,2013-07-05 00:20:00,
2013-07-04 19:23:00,76.7,76.7,28.97,SSE,156,1.0,3.0,100,0.00,,SCT050,0.01,VWS V14.01,2013-07-05 00:23:00,
2013-07-04 19:28:00,76.4,76.4,28.96,SSE,148,0.0,3.0,100,0.00,,SCT050,0.01,VWS V14.01,2013-07-05 00:28:00,
2013-07-04 19:30:00,79.2,79.2,28.97,SSE,165,1.0,6.0,100,0.00,,CLR,0.01,VWS V15.00,2013-07-05 00:30:00,
2013-07-04 19:33:00,76.3,76.3,28.96,SSE,156,0.0,2.0,100,0.00,,SCT050,0.01,VWS V14.01,2013-07-05 00:33:00,
2013-07-04 19:38:00,76.1,76.1,28.97,SSE,156,1.0,2.0,100,0.00,,SCT050,0.01,VWS V14.01,2013-07-05 00:38:00,
2013-07-04 19:40:00,78.6,78.6,28.97,South,184,0.0,5.0,100,0.00,,CLR,0.01,VWS V15.00,2013-07-05 00:40:00,
2013-07-04 19:43:00,76.0,76.0,28.97,SSE,156,1.0,3.0,100,0.00,,SCT050,0.01,VWS V14.01,2013-07-05 00:43:00,
2013-07-04 19:48:00,75.8,75.8,28.97,SSE,158,1.0,4.0,100,0.00,,SCT050,0.01,VWS V14.01,2013-07-05 00:48:00,
2013-07-04 19:50:00,78.1,78.1,28.97,SSW,205,2.0,6.0,100,0.00,,CLR,0.01,VWS V15.00,2013-07-05 00:50:00,
2013-07-04 19:53:00,75.6,75.6,28.97,SSE,158,1.0,2.0,100,0.00,,SCT050,0.01,VWS V14.01,2013-07-05 00:53:00,
2013-07-04 19:58:00,75.4,75.4,28.97,SE,138,3.0,5.0,100,0.00,,SCT050,0.01,VWS V14.01,2013-07-05 00:58:00,
2013-07-04 20:00:00,77.6,77.6,28.97,SSE,161,0.0,4.0,100,0.00,,CLR,0.01,VWS V15.00,2013-07-05 01:00:00,
2013-07-04 20:03:00,75.3,75.3,28.97,South,174,1.0,5.0,100,0.00,,SCT050,0.01,VWS V14.01,2013-07-05 01:03:00,
2013-07-04 20:08:00,75.1,75.1,28.97,SSE,159,1.0,5.0,100,0.00,,SCT050,0.01,VWS V14.01,2013-07-05 01:08:00,
2013-07-04 20:10:00,77.2,77.2,28.97,SSE,154,2.0,7.0,100,0.00,,CLR,0.01,VWS V15.00,2013-07-05 01:10:00,
2013-07-04 20:13:00,75.0,75.0,28.97,SSE,158,1.0,4.0,100,0.00,,SCT050,0.01,VWS V14.01,2013-07-05 01:13:00,
2013-07-04 20:18:00,74.9,74.9,28.97,SE,143,1.0,4.0,100,0.00,,SCT050,0.01,VWS V14.01,2013-07-05 01:18:00,
2013-07-04 20:20:00,76.8,76.8,28.96,SSE,156,0.0,3.0,100,0.00,,CLR,0.01,VWS V15.00,2013-07-05 01:20:00,
2013-07-04 20:23:00,74.8,74.8,28.97,SSE,152,1.0,2.0,100,0.00,,SCT050,0.01,VWS V14.01,2013-07-05 01:23:00,
2013-07-04 20:28:00,74.6,74.6,28.96,SSE,148,2.0,5.0,100,0.00,,SCT050,0.01,VWS V14.01,2013-07-05 01:28:00,
2013-07-04 20:30:00,76.4,76.4,28.97,SSE,156,2.0,3.0,100,0.00,,CLR,0.01,VWS V15.00,2013-07-05 01:30:00,
2013-07-04 20:33:00,74.4,74.4,28.96,SSE,148,0.0,2.0,100,0.00,,SCT050,0.01,VWS V14.01,2013-07-05 01:33:00,
2013-07-04 20:38:00,74.2,74.2,28.97,SSE,148,1.0,2.0,100,0.00,,SCT055,0.01,VWS V14.01,2013-07-05 01:38:00,
2013-07-04 20:40:00,76.1,76.1,28.97,SSE,156,1.0,3.0,100,0.00,,CLR,0.01,VWS V15.00,2013-07-05 01:40:00,
2013-07-04 20:43:00,74.0,74.0,28.97,SSE,148,2.0,2.0,100,0.00,,SCT055,0.01,VWS V14.01,2013-07-05 01:43:00,
2013-07-04 20:48:00,73.8,73.8,28.97,SSE,156,1.0,3.0,100,0.00,,SCT055,0.01,VWS V14.01,2013-07-05 01:48:00,
2013-07-04 20:50:00,75.7,75.7,28.97,SSE,158,1.0,4.0,100,0.00,,CLR,0.01,VWS V15.00,2013-07-05 01:50:00,
2013-07-04 20:53:00,73.6,73.6,28.97,SSE,149,3.0,4.0,100,0.00,,SCT055,0.01,VWS V14.01,2013-07-05 01:53:00,
2013-07-04 20:58:00,73.4,73.4,28.97,SSE,152,1.0,4.0,100,0.00,,SCT055,0.01,VWS V14.01,2013-07-05 01:58:00,
2013-07-04 21:00:00,75.4,75.4,28.97,SSE,165,2.0,5.0,100,0.00,,CLR,0.01,VWS V15.00,2013-07-05 02:00:00,
2013-07-04 21:03:00,73.2,73.2,28.97,SSE,148,1.0,4.0,100,0.00,,SCT055,0.01,VWS V14.01,2013-07-05 02:03:00,
2013-07-04 21:08:00,73.0,73.0,28.97,SSE,152,2.0,4.0,100,0.00,,SCT055,0.01,VWS V14.01,2013-07-05 02:08:00,
2013-07-04 21:10:00,75.1,75.1,28.97,SSE,157,1.0,5.0,100,0.00,,CLR,0.01,VWS V15.00,2013-07-05 02:10:00,
2013-07-04 21:13:00,72.9,72.9,28.97,SSE,151,2.0,4.0,100,0.00,,SCT055,0.01,VWS V14.01,2013-07-05 02:13:00,
2013-07-04 21:18:00,72.7,72.7,28.97,SSE,159,0.0,4.0,100,0.00,,SCT055,0.01,VWS V14.01,2013-07-05 02:18:00,
2013-07-04 21:20:00,74.8,74.8,28.96,SSE,149,2.0,4.0,100,0.00,,CLR,0.01,VWS V15.00,2013-07-05 02:20:00,
2013-07-04 21:23:00,72.6,72.6,28.97,SSE,160,2.0,5.0,100,0.00,,SCT055,0.01,VWS V14.01,2013-07-05 02:23:00,
2013-07-04 21:28:00,72.5,72.5,28.97,SSE,151,2.0,5.0,100,0.00,,SCT055,0.01,VWS V14.01,2013-07-05 02:28:00,
2013-07-04 21:30:00,74.5,74.5,28.97,SSE,148,1.0,5.0,100,0.00,,CLR,0.01,VWS V15.00,2013-07-05 02:30:00,
2013-07-04 21:33:00,72.4,72.4,28.97,SSE,160,2.0,4.0,100,0.00,,SCT055,0.01,VWS V14.01,2013-07-05 02:33:00,
2013-07-04 21:38:00,72.2,72.2,28.97,SSE,159,3.0,5.0,100,0.00,,FEW046,0.01,VWS V14.01,2013-07-05 02:38:00,
2013-07-04 21:40:00,74.1,74.1,28.96,SSE,148,2.0,2.0,100,0.00,,CLR,0.01,VWS V15.00,2013-07-05 02:40:00,
2013-07-04 21:43:00,72.1,72.1,28.97,SSE,154,5.0,5.0,100,0.00,,FEW046,0.01,VWS V14.01,2013-07-05 02:43:00,
2013-07-04 21:48:00,71.9,71.9,28.97,SE,141,3.0,5.0,100,0.00,,FEW046,0.01,VWS V14.01,2013-07-05 02:48:00,
2013-07-04 21:50:00,73.8,73.8,28.97,SSE,155,1.0,4.0,100,0.00,,CLR,0.01,VWS V15.00,2013-07-05 02:50:00,
2013-07-04 21:53:00,71.7,71.7,28.98,SSE,166,0.0,4.0,100,0.00,,FEW046,0.01,VWS V14.01,2013-07-05 02:53:00,
2013-07-04 21:58:00,71.5,71.5,28.97,SE,132,2.0,5.0,100,0.00,,FEW046,0.01,VWS V14.01,2013-07-05 02:58:00,
2013-07-04 22:00:00,73.3,73.3,28.97,SSE,158,1.0,4.0,100,0.00,,CLR,0.01,VWS V15.00,2013-07-05 03:00:00,
2013-07-04 22:03:00,71.4,71.4,28.97,SSE,163,2.0,4.0,100,0.00,,FEW046,0.01,VWS V14.01,2013-07-05 03:03:00,
2013-07-04 22:08:00,71.2,71.2,28.98,SSE,153,1.0,5.0,100,0.00,,FEW046,0.01,VWS V14.01,2013-07-05 03:08:00,
2013-07-04 22:10:00,73.0,73.0,28.97,SSE,158,2.0,5.0,100,0.00,,CLR,0.01,VWS V15.00,2013-07-05 03:10:00,
2013-07-04 22:13:00,71.1,71.1,28.98,SE,139,3.0,6.0,100,0.00,,FEW046,0.01,VWS V14.01,2013-07-05 03:13:00,
2013-07-04 22:18:00,71.0,71.0,28.97,South,171,3.0,6.0,100,0.00,,FEW046,0.01,VWS V14.01,2013-07-05 03:18:00,
2013-07-04 22:20:00,72.7,72.7,28.97,SSE,149,2.0,4.0,100,0.00,,CLR,0.01,VWS V15.00,2013-07-05 03:20:00,
2013-07-04 22:23:00,70.8,70.8,28.97,SSE,152,3.0,4.0,100,0.00,,FEW046,0.01,VWS V14.01,2013-07-05 03:23:00,
2013-07-04 22:28:00,70.6,70.6,28.97,SSE,160,1.0,5.0,100,0.00,,FEW046,0.01,VWS V14.01,2013-07-05 03:28:00,
2013-07-04 22:30:00,72.5,72.5,28.97,SSE,154,1.0,5.0,100,0.00,,CLR,0.01,VWS V15.00,2013-07-05 03:30:00,
2013-07-04 22:34:00,70.3,70.3,28.97,South,173,3.0,4.0,100,0.00,,FEW041,0.01,VWS V14.01,2013-07-05 03:34:00,
2013-07-04 22:39:00,70.2,70.2,28.98,SSE,162,2.0,4.0,100,0.00,,FEW041,0.01,VWS V14.01,2013-07-05 03:39:00,
2013-07-04 22:40:00,72.2,72.2,28.97,South,177,2.0,5.0,100,0.00,,CLR,0.01,VWS V15.00,2013-07-05 03:40:00,
2013-07-04 22:44:00,70.0,70.0,28.98,SSE,152,2.0,4.0,100,0.00,,FEW041,0.01,VWS V14.01,2013-07-05 03:44:00,
2013-07-04 22:49:00,69.9,69.9,28.98,SSE,154,3.0,5.0,100,0.00,,FEW041,0.01,VWS V14.01,2013-07-05 03:49:00,
2013-07-04 22:50:00,71.8,71.8,28.97,South,178,2.0,5.0,100,0.00,,CLR,0.01,VWS V15.00,2013-07-05 03:50:00,
2013-07-04 22:54:00,69.8,69.8,28.97,SSE,158,3.0,4.0,100,0.00,,FEW041,0.01,VWS V14.01,2013-07-05 03:54:00,
2013-07-04 22:59:00,69.8,69.8,28.98,SSE,148,3.0,5.0,100,0.00,,FEW041,0.01,VWS V14.01,2013-07-05 03:59:00,
2013-07-04 23:00:00,71.5,71.5,28.97,SE,145,2.0,5.0,100,0.00,,CLR,0.01,VWS V15.00,2013-07-05 04:00:00,
2013-07-04 23:01:00,69.8,69.8,28.97,SSE,157,2.0,3.0,100,0.00,,FEW041,0.01,VWS V14.01,2013-07-05 04:01:00,
2013-07-04 23:06:00,69.6,69.6,28.97,SSE,150,3.0,6.0,100,0.00,,FEW041,0.01,VWS V14.01,2013-07-05 04:06:00,
2013-07-04 23:10:00,71.2,71.2,28.97,SSE,162,4.0,5.0,100,0.00,,CLR,0.01,VWS V15.00,2013-07-05 04:10:00,
2013-07-04 23:11:00,69.6,69.6,28.98,SSE,160,3.0,5.0,100,0.00,,FEW041,0.01,VWS V14.01,2013-07-05 04:11:00,
2013-07-04 23:16:00,69.5,69.5,28.98,SSW,199,3.0,6.0,100,0.00,,FEW041,0.01,VWS V14.01,2013-07-05 04:16:00,
2013-07-04 23:20:00,70.9,70.9,28.97,SSE,164,2.0,6.0,100,0.00,,CLR,0.01,VWS V15.00,2013-07-05 04:20:00,
2013-07-04 23:21:00,69.4,69.4,28.98,SSE,164,5.0,5.0,100,0.00,,FEW041,0.01,VWS V14.01,2013-07-05 04:21:00,
2013-07-04 23:27:00,69.3,69.3,28.98,SSE,167,3.0,6.0,100,0.00,,FEW041,0.01,VWS V14.01,2013-07-05 04:27:00,
2013-07-04 23:30:00,70.5,70.5,28.97,South,185,2.0,5.0,100,0.00,,CLR,0.01,VWS V15.00,2013-07-05 04:30:00,
2013-07-04 23:32:00,69.2,69.2,28.98,South,186,3.0,3.0,100,0.00,,FEW041,0.01,VWS V14.01,2013-07-05 04:32:00,
2013-07-04 23:37:00,69.0,69.0,28.98,SSE,168,1.0,6.0,100,0.00,,CLR,0.01,VWS V14.01,2013-07-05 04:37:00,
2013-07-04 23:40:00,70.2,70.2,28.98,South,178,4.0,5.0,100,0.00,,CLR,0.01,VWS V15.00,2013-07-05 04:40:00,
2013-07-04 23:42:00,68.9,68.9,28.98,SSE,166,3.0,5.0,100,0.00,,CLR,0.01,VWS V14.01,2013-07-05 04:42:00,
2013-07-04 23:47:00,68.9,68.9,28.98,SSE,152,4.0,6.0,100,0.00,,CLR,0.01,VWS V14.01,2013-07-05 04:47:00,
2013-07-04 23:50:00,69.9,69.9,28.98,SSE,160,2.0,5.0,100,0.00,,CLR,0.01,VWS V15.00,2013-07-05 04:50:00,
2013-07-04 23:52:00,68.8,68.8,28.97,SSE,150,2.0,5.0,100,0.00,,CLR,0.01,VWS V14.01,2013-07-05 04:52:00,
2013-07-04 23:57:00,68.7,68.7,28.97,SE,124,2.0,6.0,100,0.00,,CLR,0.01,VWS V14.01,2013-07-05 04:57:00,